createdAt,value
2022-10-05T00:00:47.879Z,1014.40
2022-10-05T00:01:47.926Z,1014.28
2022-10-05T00:02:47.896Z,1014.33
2022-10-05T00:03:47.867Z,1014.31
2022-10-05T00:04:47.905Z,1014.30
2022-10-05T00:05:47.862Z,1014.27
2022-10-05T00:06:48.329Z,1014.25
2022-10-05T00:07:47.858Z,1014.24
2022-10-05T00:08:47.855Z,1014.24
2022-10-05T00:09:47.848Z,1014.21
2022-10-05T00:10:47.845Z,1014.23
2022-10-05T00:11:47.843Z,1014.18
2022-10-05T00:12:47.839Z,1014.17
2022-10-05T00:13:47.841Z,1014.19
2022-10-05T00:14:47.833Z,1014.17
2022-10-05T00:15:47.827Z,1014.17
2022-10-05T00:16:48.225Z,1014.17
2022-10-05T00:17:47.824Z,1014.14
2022-10-05T00:18:47.834Z,1014.15
2022-10-05T00:19:47.824Z,1014.15
2022-10-05T00:20:47.817Z,1014.14
2022-10-05T00:21:47.815Z,1014.10
2022-10-05T00:22:47.813Z,1014.10
2022-10-05T00:23:47.802Z,1014.05
2022-10-05T00:24:47.802Z,1014.07
2022-10-05T00:25:47.798Z,1014.10
2022-10-05T00:26:48.202Z,1014.06
2022-10-05T00:27:47.790Z,1014.07
2022-10-05T00:28:47.792Z,1014.06
2022-10-05T00:29:47.785Z,1014.02
2022-10-05T00:30:47.781Z,1014.06
2022-10-05T00:31:47.912Z,1014.05
2022-10-05T00:32:47.776Z,1014.01
2022-10-05T00:33:47.775Z,1013.96
2022-10-05T00:34:47.789Z,1013.98
2022-10-05T00:35:47.769Z,1013.98
2022-10-05T00:36:48.168Z,1014.01
2022-10-05T00:37:47.763Z,1013.96
2022-10-05T00:38:48.759Z,1013.97
2022-10-05T00:39:47.752Z,1013.98
2022-10-05T00:40:47.753Z,1013.94
2022-10-05T00:41:47.747Z,1013.99
2022-10-05T00:42:47.744Z,1013.97
2022-10-05T00:43:47.746Z,1013.95
2022-10-05T00:44:47.741Z,1013.98
2022-10-05T00:45:47.823Z,1013.96
2022-10-05T00:46:48.041Z,1013.95
2022-10-05T00:47:47.729Z,1013.96
2022-10-05T00:48:47.729Z,1014.02
2022-10-05T00:49:47.724Z,1013.98
2022-10-05T00:50:47.744Z,1013.99
2022-10-05T00:51:47.730Z,1013.98
2022-10-05T00:52:47.715Z,1013.98
2022-10-05T00:53:47.717Z,1014.02
2022-10-05T00:54:47.706Z,1014.00
2022-10-05T00:55:47.707Z,1013.99
2022-10-05T00:56:48.151Z,1014.02
2022-10-05T00:57:47.699Z,1014.01
2022-10-05T00:58:47.698Z,1013.99
2022-10-05T00:59:47.700Z,1013.97
2022-10-05T01:00:47.721Z,1014.01
2022-10-05T01:01:47.684Z,1013.99
2022-10-05T01:02:47.791Z,1013.99
2022-10-05T01:03:47.679Z,1013.97
2022-10-05T01:04:47.675Z,1014.00
2022-10-05T01:05:47.675Z,1013.95
2022-10-05T01:06:47.985Z,1013.98
2022-10-05T01:07:47.664Z,1013.97
2022-10-05T01:08:47.667Z,1013.97
2022-10-05T01:09:47.663Z,1013.98
2022-10-05T01:10:47.657Z,1013.98
2022-10-05T01:11:47.653Z,1014.00
2022-10-05T01:12:47.654Z,1013.99
2022-10-05T01:13:47.650Z,1014.01
2022-10-05T01:14:47.645Z,1014.04
2022-10-05T01:15:47.647Z,1014.03
2022-10-05T01:16:47.976Z,1014.01
2022-10-05T01:17:47.637Z,1013.98
2022-10-05T01:18:47.636Z,1013.94
2022-10-05T01:19:47.627Z,1013.89
2022-10-05T01:20:47.630Z,1013.94
2022-10-05T01:21:47.622Z,1013.95
2022-10-05T01:22:47.639Z,1013.94
2022-10-05T01:23:47.615Z,1013.98
2022-10-05T01:24:47.619Z,1013.96
2022-10-05T01:25:47.609Z,1013.93
2022-10-05T01:26:48.017Z,1013.95
2022-10-05T01:27:47.605Z,1013.94
2022-10-05T01:28:47.603Z,1013.94
2022-10-05T01:29:47.598Z,1013.91
2022-10-05T01:30:47.596Z,1013.95
2022-10-05T01:31:47.669Z,1013.90
2022-10-05T01:32:47.592Z,1013.86
2022-10-05T01:33:47.585Z,1013.84
2022-10-05T01:34:47.582Z,1013.81
2022-10-05T01:35:47.579Z,1013.84
2022-10-05T01:36:47.969Z,1013.76
2022-10-05T01:37:47.573Z,1013.78
2022-10-05T01:38:47.592Z,1013.77
2022-10-05T01:39:47.567Z,1013.75
2022-10-05T01:40:47.562Z,1013.73
2022-10-05T01:41:47.564Z,1013.71
2022-10-05T01:42:47.565Z,1013.71
2022-10-05T01:43:47.556Z,1013.71
2022-10-05T01:44:47.551Z,1013.73
2022-10-05T01:45:47.645Z,1013.70
2022-10-05T01:46:47.914Z,1013.68
2022-10-05T01:47:47.539Z,1013.68
2022-10-05T01:48:47.538Z,1013.66
2022-10-05T01:49:47.534Z,1013.70
2022-10-05T01:50:49.183Z,1013.67
2022-10-05T01:51:47.527Z,1013.73
2022-10-05T01:52:47.527Z,1013.68
2022-10-05T01:53:47.526Z,1013.68
2022-10-05T01:54:47.541Z,1013.68
2022-10-05T01:55:47.515Z,1013.63
2022-10-05T01:56:47.973Z,1013.60
2022-10-05T01:57:47.517Z,1013.64
2022-10-05T01:58:47.510Z,1013.60
2022-10-05T01:59:47.500Z,1013.57
2022-10-05T02:00:47.534Z,1013.54
2022-10-05T02:01:47.584Z,1013.59
2022-10-05T02:02:47.495Z,1013.52
2022-10-05T02:03:47.491Z,1013.52
2022-10-05T02:05:03.335Z,1013.50
2022-10-05T02:05:47.485Z,1013.53
2022-10-05T02:06:47.817Z,1013.56
2022-10-05T02:07:47.480Z,1013.53
2022-10-05T02:08:47.475Z,1013.50
2022-10-05T02:09:47.480Z,1013.49
2022-10-05T02:10:47.496Z,1013.50
2022-10-05T02:11:47.467Z,1013.51
2022-10-05T02:12:47.462Z,1013.51
2022-10-05T02:13:47.466Z,1013.50
2022-10-05T02:14:47.459Z,1013.45
2022-10-05T02:15:47.553Z,1013.49
2022-10-05T02:16:47.900Z,1013.48
2022-10-05T02:17:47.445Z,1013.46
2022-10-05T02:18:47.445Z,1013.46
2022-10-05T02:19:47.441Z,1013.45
2022-10-05T02:20:47.436Z,1013.44
2022-10-05T02:21:47.437Z,1013.44
2022-10-05T02:22:47.433Z,1013.44
2022-10-05T02:23:47.431Z,1013.43
2022-10-05T02:24:47.423Z,1013.44
2022-10-05T02:25:47.424Z,1013.44
2022-10-05T02:26:47.844Z,1013.47
2022-10-05T02:27:47.416Z,1013.45
2022-10-05T02:28:47.411Z,1013.47
2022-10-05T02:29:47.408Z,1013.45
2022-10-05T02:30:47.403Z,1013.42
2022-10-05T02:31:47.470Z,1013.44
2022-10-05T02:32:47.398Z,1013.45
2022-10-05T02:33:47.397Z,1013.43
2022-10-05T02:34:47.393Z,1013.42
2022-10-05T02:35:47.391Z,1013.42
2022-10-05T02:36:47.761Z,1013.48
2022-10-05T02:37:47.388Z,1013.44
2022-10-05T02:38:47.383Z,1013.46
2022-10-05T02:39:47.382Z,1013.45
2022-10-05T02:40:47.374Z,1013.48
2022-10-05T02:41:47.371Z,1013.43
2022-10-05T02:42:47.384Z,1013.46
2022-10-05T02:43:47.374Z,1013.41
2022-10-05T02:44:47.360Z,1013.40
2022-10-05T02:45:47.422Z,1013.39
2022-10-05T02:46:49.206Z,1013.38
2022-10-05T02:47:47.353Z,1013.41
2022-10-05T02:48:47.348Z,1013.42
2022-10-05T02:49:47.344Z,1013.39
2022-10-05T02:50:47.346Z,1013.39
2022-10-05T02:51:47.342Z,1013.35
2022-10-05T02:52:47.336Z,1013.35
2022-10-05T02:53:47.335Z,1013.35
2022-10-05T02:54:47.330Z,1013.31
2022-10-05T02:55:47.326Z,1013.29
2022-10-05T02:56:47.752Z,1013.31
2022-10-05T02:57:47.323Z,1013.33
2022-10-05T02:58:47.337Z,1013.29
2022-10-05T02:59:47.316Z,1013.24
2022-10-05T03:00:47.408Z,1013.24
2022-10-05T03:01:49.696Z,1013.20
2022-10-05T03:02:47.307Z,1013.21
2022-10-05T03:03:47.304Z,1013.20
2022-10-05T03:04:47.301Z,1013.23
2022-10-05T03:05:47.299Z,1013.22
2022-10-05T03:06:47.700Z,1013.20
2022-10-05T03:07:47.292Z,1013.20
2022-10-05T03:08:47.291Z,1013.21
2022-10-05T03:09:47.288Z,1013.22
2022-10-05T03:10:47.278Z,1013.24
2022-10-05T03:11:47.281Z,1013.25
2022-10-05T03:12:47.277Z,1013.24
2022-10-05T03:13:47.274Z,1013.21
2022-10-05T03:14:47.320Z,1013.23
2022-10-05T03:15:47.305Z,1013.21
2022-10-05T03:16:47.796Z,1013.19
2022-10-05T03:17:47.261Z,1013.17
2022-10-05T03:18:47.255Z,1013.15
2022-10-05T03:19:47.255Z,1013.14
2022-10-05T03:20:47.251Z,1013.10
2022-10-05T03:21:47.252Z,1013.13
2022-10-05T03:22:47.252Z,1013.12
2022-10-05T03:23:47.245Z,1013.12
2022-10-05T03:24:47.240Z,1013.11
2022-10-05T03:25:47.240Z,1013.12
2022-10-05T03:26:47.584Z,1013.07
2022-10-05T03:27:47.232Z,1013.12
2022-10-05T03:28:47.230Z,1013.09
2022-10-05T03:29:47.228Z,1013.16
2022-10-05T03:30:47.291Z,1013.10
2022-10-05T03:31:47.228Z,1013.09
2022-10-05T03:32:47.221Z,1013.08
2022-10-05T03:33:47.220Z,1013.07
2022-10-05T03:34:47.212Z,1013.02
2022-10-05T03:35:47.207Z,1013.03
2022-10-05T03:36:47.574Z,1012.99
2022-10-05T03:37:47.206Z,1013.00
2022-10-05T03:38:47.199Z,1013.00
2022-10-05T03:39:47.199Z,1012.97
2022-10-05T03:40:47.200Z,1012.99
2022-10-05T03:41:47.195Z,1012.95
2022-10-05T03:42:47.191Z,1012.95
2022-10-05T03:43:47.188Z,1012.97
2022-10-05T03:44:47.181Z,1012.93
2022-10-05T03:45:47.239Z,1012.94
2022-10-05T03:46:47.429Z,1012.94
2022-10-05T03:47:47.189Z,1012.94
2022-10-05T03:48:47.174Z,1012.94
2022-10-05T03:49:47.170Z,1012.89
2022-10-05T03:50:47.166Z,1012.89
2022-10-05T03:51:47.177Z,1012.84
2022-10-05T03:52:47.162Z,1012.82
2022-10-05T03:53:47.169Z,1012.85
2022-10-05T03:54:47.163Z,1012.81
2022-10-05T03:55:47.152Z,1012.80
2022-10-05T03:56:47.525Z,1012.82
2022-10-05T03:57:47.149Z,1012.80
2022-10-05T03:58:47.163Z,1012.77
2022-10-05T03:59:47.149Z,1012.74
2022-10-05T04:00:47.149Z,1012.81
2022-10-05T04:01:47.178Z,1012.77
2022-10-05T04:02:47.249Z,1012.77
2022-10-05T04:03:47.136Z,1012.77
2022-10-05T04:04:47.133Z,1012.79
2022-10-05T04:05:47.128Z,1012.79
2022-10-05T04:06:47.473Z,1012.81
2022-10-05T04:07:47.124Z,1012.83
2022-10-05T04:08:48.211Z,1012.78
2022-10-05T04:09:47.118Z,1012.79
2022-10-05T04:10:47.110Z,1012.80
2022-10-05T04:11:47.110Z,1012.79
2022-10-05T04:12:47.107Z,1012.76
2022-10-05T04:13:47.109Z,1012.75
2022-10-05T04:14:47.100Z,1012.74
2022-10-05T04:15:50.098Z,1012.69
2022-10-05T04:16:47.401Z,1012.73
2022-10-05T04:17:47.095Z,1012.77
2022-10-05T04:18:47.113Z,1012.77
2022-10-05T04:19:47.089Z,1012.71
2022-10-05T04:20:47.090Z,1012.76
2022-10-05T04:21:47.090Z,1012.69
2022-10-05T04:22:47.080Z,1012.73
2022-10-05T04:23:47.081Z,1012.76
2022-10-05T04:24:47.074Z,1012.71
2022-10-05T04:25:47.074Z,1012.72
2022-10-05T04:26:47.465Z,1012.75
2022-10-05T04:27:47.074Z,1012.73
2022-10-05T04:28:47.112Z,1012.75
2022-10-05T04:29:47.078Z,1012.69
2022-10-05T04:30:47.061Z,1012.67
2022-10-05T04:31:47.151Z,1012.72
2022-10-05T04:32:47.057Z,1012.74
2022-10-05T04:33:47.058Z,1012.70
2022-10-05T04:34:47.073Z,1012.72
2022-10-05T04:35:47.047Z,1012.69
2022-10-05T04:36:47.456Z,1012.74
2022-10-05T04:37:47.049Z,1012.70
2022-10-05T04:38:47.041Z,1012.70
2022-10-05T04:39:47.041Z,1012.71
2022-10-05T04:40:47.036Z,1012.73
2022-10-05T04:41:47.037Z,1012.73
2022-10-05T04:42:47.030Z,1012.72
2022-10-05T04:43:47.027Z,1012.71
2022-10-05T04:44:47.024Z,1012.72
2022-10-05T04:45:47.025Z,1012.72
2022-10-05T04:46:47.453Z,1012.69
2022-10-05T04:47:47.024Z,1012.70
2022-10-05T04:48:47.019Z,1012.75
2022-10-05T04:49:47.013Z,1012.73
2022-10-05T04:50:47.058Z,1012.74
2022-10-05T04:51:50.986Z,1012.73
2022-10-05T04:52:47.014Z,1012.71
2022-10-05T04:53:47.007Z,1012.76
2022-10-05T04:54:46.998Z,1012.74
2022-10-05T04:55:46.995Z,1012.75
2022-10-05T04:56:47.338Z,1012.76
2022-10-05T04:57:46.993Z,1012.74
2022-10-05T04:58:46.993Z,1012.71
2022-10-05T04:59:46.990Z,1012.74
2022-10-05T05:00:47.042Z,1012.82
2022-10-05T05:01:46.983Z,1012.77
2022-10-05T05:02:46.986Z,1012.78
2022-10-05T05:03:47.039Z,1012.80
2022-10-05T05:04:51.507Z,1012.78
2022-10-05T05:06:11.986Z,1012.80
2022-10-05T05:06:47.483Z,1012.77
2022-10-05T05:07:46.970Z,1012.80
2022-10-05T05:08:46.963Z,1012.79
2022-10-05T05:09:46.965Z,1012.78
2022-10-05T05:10:46.965Z,1012.79
2022-10-05T05:11:46.962Z,1012.84
2022-10-05T05:12:46.953Z,1012.79
2022-10-05T05:13:46.952Z,1012.78
2022-10-05T05:14:46.948Z,1012.83
2022-10-05T05:15:47.009Z,1012.79
2022-10-05T05:16:47.327Z,1012.79
2022-10-05T05:17:47.001Z,1012.76
2022-10-05T05:18:46.992Z,1012.75
2022-10-05T05:19:47.000Z,1012.76
2022-10-05T05:20:46.992Z,1012.80
2022-10-05T05:21:46.986Z,1012.79
2022-10-05T05:22:46.947Z,1012.75
2022-10-05T05:23:46.932Z,1012.80
2022-10-05T05:24:47.031Z,1012.76
2022-10-05T05:25:46.926Z,1012.77
2022-10-05T05:26:47.328Z,1012.78
2022-10-05T05:27:46.916Z,1012.75
2022-10-05T05:28:46.917Z,1012.75
2022-10-05T05:29:46.917Z,1012.77
2022-10-05T05:30:46.910Z,1012.74
2022-10-05T05:31:46.967Z,1012.76
2022-10-05T05:32:46.912Z,1012.76
2022-10-05T05:33:46.910Z,1012.77
2022-10-05T05:34:46.906Z,1012.73
2022-10-05T05:35:46.901Z,1012.77
2022-10-05T05:36:47.290Z,1012.73
2022-10-05T05:37:46.898Z,1012.77
2022-10-05T05:38:46.909Z,1012.75
2022-10-05T05:39:46.889Z,1012.77
2022-10-05T05:40:46.886Z,1012.76
2022-10-05T05:41:46.885Z,1012.75
2022-10-05T05:42:46.884Z,1012.77
2022-10-05T05:43:46.882Z,1012.79
2022-10-05T05:44:46.885Z,1012.80
2022-10-05T05:45:46.875Z,1012.83
2022-10-05T05:47:04.515Z,1012.83
2022-10-05T05:47:46.929Z,1012.84
2022-10-05T05:48:46.868Z,1012.83
2022-10-05T05:49:46.866Z,1012.85
2022-10-05T05:50:46.862Z,1012.80
2022-10-05T05:51:46.862Z,1012.85
2022-10-05T05:52:46.861Z,1012.85
2022-10-05T05:53:46.865Z,1012.87
2022-10-05T05:54:46.874Z,1012.86
2022-10-05T05:55:46.851Z,1012.85
2022-10-05T05:56:47.151Z,1012.82
2022-10-05T05:57:46.856Z,1012.86
2022-10-05T05:58:46.844Z,1012.84
2022-10-05T05:59:46.845Z,1012.86
2022-10-05T06:00:46.838Z,1012.86
2022-10-05T06:01:46.914Z,1012.86
2022-10-05T06:02:46.937Z,1012.87
2022-10-05T06:03:46.834Z,1012.84
2022-10-05T06:04:46.829Z,1012.83
2022-10-05T06:05:46.831Z,1012.82
2022-10-05T06:06:47.153Z,1012.85
2022-10-05T06:07:46.823Z,1012.87
2022-10-05T06:08:46.830Z,1012.84
2022-10-05T06:09:46.823Z,1012.86
2022-10-05T06:10:46.847Z,1012.85
2022-10-05T06:11:46.812Z,1012.87
2022-10-05T06:12:46.819Z,1012.87
2022-10-05T06:13:46.813Z,1012.84
2022-10-05T06:14:46.807Z,1012.87
2022-10-05T06:15:46.806Z,1012.90
2022-10-05T06:16:47.293Z,1012.89
2022-10-05T06:17:46.803Z,1012.86
2022-10-05T06:18:46.797Z,1012.86
2022-10-05T06:19:46.797Z,1012.84
2022-10-05T06:20:46.792Z,1012.88
2022-10-05T06:21:46.791Z,1012.86
2022-10-05T06:22:46.787Z,1012.87
2022-10-05T06:23:46.789Z,1012.89
2022-10-05T06:24:46.786Z,1012.92
2022-10-05T06:25:46.782Z,1012.92
2022-10-05T06:26:47.044Z,1012.93
2022-10-05T06:27:46.780Z,1012.90
2022-10-05T06:28:46.774Z,1012.91
2022-10-05T06:29:46.774Z,1012.93
2022-10-05T06:30:46.770Z,1012.95
2022-10-05T06:31:46.830Z,1012.94
2022-10-05T06:32:46.768Z,1012.91
2022-10-05T06:33:46.770Z,1012.93
2022-10-05T06:34:46.765Z,1012.93
2022-10-05T06:35:46.755Z,1012.97
2022-10-05T06:36:47.119Z,1012.91
2022-10-05T06:37:46.754Z,1012.90
2022-10-05T06:38:46.752Z,1012.92
2022-10-05T06:39:46.754Z,1012.92
2022-10-05T06:40:46.750Z,1012.87
2022-10-05T06:41:46.745Z,1012.86
2022-10-05T06:42:46.759Z,1012.86
2022-10-05T06:43:46.741Z,1012.85
2022-10-05T06:44:46.741Z,1012.84
2022-10-05T06:45:46.805Z,1012.84
2022-10-05T06:46:47.069Z,1012.85
2022-10-05T06:47:46.729Z,1012.84
2022-10-05T06:48:46.740Z,1012.83
2022-10-05T06:49:46.725Z,1012.85
2022-10-05T06:50:46.723Z,1012.88
2022-10-05T06:51:46.719Z,1012.84
2022-10-05T06:52:46.719Z,1012.83
2022-10-05T06:53:46.715Z,1012.81
2022-10-05T06:54:46.724Z,1012.83
2022-10-05T06:55:46.715Z,1012.81
2022-10-05T06:56:46.880Z,1012.80
2022-10-05T06:57:46.710Z,1012.83
2022-10-05T06:58:46.722Z,1012.83
2022-10-05T06:59:46.699Z,1012.83
2022-10-05T07:00:46.783Z,1012.82
2022-10-05T07:01:47.114Z,1012.86
2022-10-05T07:02:46.702Z,1012.83
2022-10-05T07:03:46.695Z,1012.87
2022-10-05T07:04:46.694Z,1012.86
2022-10-05T07:05:46.690Z,1012.87
2022-10-05T07:06:46.684Z,1012.87
2022-10-05T07:07:46.685Z,1012.85
2022-10-05T07:08:46.684Z,1012.85
2022-10-05T07:09:46.687Z,1012.86
2022-10-05T07:10:46.687Z,1012.89
2022-10-05T07:11:50.141Z,1012.85
2022-10-05T07:12:46.722Z,1012.85
2022-10-05T07:13:46.672Z,1012.82
2022-10-05T07:14:46.760Z,1012.82
2022-10-05T07:15:46.667Z,1012.81
2022-10-05T07:16:46.723Z,1012.83
2022-10-05T07:17:46.672Z,1012.81
2022-10-05T07:18:46.658Z,1012.78
2022-10-05T07:19:46.687Z,1012.79
2022-10-05T07:20:49.233Z,1012.80
2022-10-05T07:21:46.970Z,1012.83
2022-10-05T07:22:46.653Z,1012.83
2022-10-05T07:23:46.651Z,1012.82
2022-10-05T07:24:46.649Z,1012.86
2022-10-05T07:25:46.645Z,1012.81
2022-10-05T07:26:47.053Z,1012.83
2022-10-05T07:27:50.923Z,1012.80
2022-10-05T07:28:46.637Z,1012.79
2022-10-05T07:29:46.634Z,1012.76
2022-10-05T07:30:46.752Z,1012.81
2022-10-05T07:31:46.630Z,1012.88
2022-10-05T07:32:46.634Z,1012.87
2022-10-05T07:33:46.647Z,1012.85
2022-10-05T07:34:46.623Z,1012.88
2022-10-05T07:35:46.620Z,1012.86
2022-10-05T07:36:50.948Z,1012.86
2022-10-05T07:37:46.615Z,1012.90
2022-10-05T07:38:46.620Z,1012.88
2022-10-05T07:40:00.168Z,1012.86
2022-10-05T07:40:46.611Z,1012.89
2022-10-05T07:41:46.618Z,1012.91
2022-10-05T07:42:51.783Z,1012.90
2022-10-05T07:44:03.335Z,1012.92
2022-10-05T07:44:46.605Z,1012.87
2022-10-05T07:45:46.662Z,1012.90
2022-10-05T07:46:47.018Z,1012.88
2022-10-05T07:47:46.593Z,1012.89
2022-10-05T07:48:46.594Z,1012.90
2022-10-05T07:49:46.590Z,1012.89
2022-10-05T07:50:46.590Z,1012.91
2022-10-05T07:51:46.588Z,1012.89
2022-10-05T07:52:46.586Z,1012.93
2022-10-05T07:53:46.582Z,1012.88
2022-10-05T07:54:46.580Z,1012.93
2022-10-05T07:55:46.585Z,1012.95
2022-10-05T07:56:46.877Z,1012.99
2022-10-05T07:57:46.572Z,1013.01
2022-10-05T07:58:46.571Z,1013.03
2022-10-05T07:59:46.568Z,1013.04
2022-10-05T08:00:46.568Z,1013.01
2022-10-05T08:01:46.610Z,1012.99
2022-10-05T08:02:46.729Z,1013.02
2022-10-05T08:03:46.566Z,1013.01
2022-10-05T08:04:46.562Z,1012.96
2022-10-05T08:05:46.563Z,1013.00
2022-10-05T08:06:46.823Z,1012.98
2022-10-05T08:07:46.551Z,1012.93
2022-10-05T08:08:46.551Z,1012.95
2022-10-05T08:09:46.555Z,1012.91
2022-10-05T08:10:46.546Z,1012.92
2022-10-05T08:11:46.897Z,1012.92
2022-10-05T08:12:46.542Z,1012.93
2022-10-05T08:13:46.542Z,1012.92
2022-10-05T08:14:46.537Z,1012.91
2022-10-05T08:15:46.574Z,1012.83
2022-10-05T08:16:46.555Z,1012.94
2022-10-05T08:17:46.529Z,1012.88
2022-10-05T08:18:46.548Z,1012.82
2022-10-05T08:19:46.525Z,1012.78
2022-10-05T08:20:46.531Z,1012.87
2022-10-05T08:21:46.870Z,1012.82
2022-10-05T08:22:46.520Z,1012.80
2022-10-05T08:23:46.516Z,1012.82
2022-10-05T08:24:46.517Z,1012.80
2022-10-05T08:25:46.513Z,1012.82
2022-10-05T08:26:46.518Z,1012.80
2022-10-05T08:27:46.509Z,1012.80
2022-10-05T08:28:46.507Z,1012.78
2022-10-05T08:29:46.505Z,1012.80
2022-10-05T08:30:46.584Z,1012.75
2022-10-05T08:31:46.851Z,1012.77
2022-10-05T08:32:46.501Z,1012.83
2022-10-05T08:33:46.497Z,1012.77
2022-10-05T08:34:46.526Z,1012.76
2022-10-05T08:35:46.493Z,1012.82
2022-10-05T08:36:49.246Z,1012.78
2022-10-05T08:37:46.490Z,1012.72
2022-10-05T08:38:46.488Z,1012.76
2022-10-05T08:39:46.483Z,1012.77
2022-10-05T08:40:46.483Z,1012.75
2022-10-05T08:41:46.727Z,1012.72
2022-10-05T08:42:46.480Z,1012.79
2022-10-05T08:43:46.475Z,1012.76
2022-10-05T08:44:46.491Z,1012.80
2022-10-05T08:45:46.576Z,1012.79
2022-10-05T08:46:46.475Z,1012.80
2022-10-05T08:47:46.469Z,1012.82
2022-10-05T08:48:46.469Z,1012.77
2022-10-05T08:49:46.468Z,1012.80
2022-10-05T08:50:46.556Z,1012.80
2022-10-05T08:51:46.664Z,1012.80
2022-10-05T08:52:46.461Z,1012.79
2022-10-05T08:53:46.458Z,1012.82
2022-10-05T08:54:46.456Z,1012.84
2022-10-05T08:55:46.452Z,1012.82
2022-10-05T08:56:46.452Z,1012.79
2022-10-05T08:57:46.448Z,1012.80
2022-10-05T08:58:46.451Z,1012.73
2022-10-05T08:59:46.449Z,1012.72
2022-10-05T09:00:46.447Z,1012.76
2022-10-05T09:01:46.832Z,1012.77
2022-10-05T09:02:46.513Z,1012.77
2022-10-05T09:03:46.435Z,1012.78
2022-10-05T09:04:46.441Z,1012.79
2022-10-05T09:05:46.447Z,1012.76
2022-10-05T09:06:46.464Z,1012.73
2022-10-05T09:07:46.431Z,1012.75
2022-10-05T09:08:46.429Z,1012.76
2022-10-05T09:09:46.426Z,1012.78
2022-10-05T09:10:46.422Z,1012.71
2022-10-05T09:11:46.781Z,1012.70
2022-10-05T09:12:46.422Z,1012.73
2022-10-05T09:13:46.420Z,1012.71
2022-10-05T09:14:52.626Z,1012.74
2022-10-05T09:15:46.503Z,1012.76
2022-10-05T09:16:46.463Z,1012.73
2022-10-05T09:17:46.416Z,1012.75
2022-10-05T09:18:46.408Z,1012.75
2022-10-05T09:19:46.409Z,1012.69
2022-10-05T09:20:46.409Z,1012.69
2022-10-05T09:21:46.807Z,1012.66
2022-10-05T09:22:46.420Z,1012.66
2022-10-05T09:23:46.412Z,1012.63
2022-10-05T09:24:48.468Z,1012.66
2022-10-05T09:25:46.396Z,1012.67
2022-10-05T09:26:46.502Z,1012.66
2022-10-05T09:27:46.392Z,1012.68
2022-10-05T09:28:46.396Z,1012.63
2022-10-05T09:29:46.389Z,1012.64
2022-10-05T09:30:46.468Z,1012.68
2022-10-05T09:31:46.848Z,1012.62
2022-10-05T09:32:46.385Z,1012.60
2022-10-05T09:33:46.383Z,1012.59
2022-10-05T09:34:46.384Z,1012.60
2022-10-05T09:35:46.379Z,1012.63
2022-10-05T09:36:46.378Z,1012.60
2022-10-05T09:37:46.379Z,1012.59
2022-10-05T09:38:46.396Z,1012.54
2022-10-05T09:39:46.372Z,1012.56
2022-10-05T09:40:46.372Z,1012.55
2022-10-05T09:41:46.683Z,1012.60
2022-10-05T09:42:46.370Z,1012.58
2022-10-05T09:43:46.372Z,1012.52
2022-10-05T09:44:46.376Z,1012.57
2022-10-05T09:45:46.368Z,1012.56
2022-10-05T09:46:46.364Z,1012.53
2022-10-05T09:47:46.363Z,1012.55
2022-10-05T09:48:46.358Z,1012.56
2022-10-05T09:49:46.357Z,1012.52
2022-10-05T09:50:46.354Z,1012.54
2022-10-05T09:51:46.703Z,1012.51
2022-10-05T09:52:46.353Z,1012.52
2022-10-05T09:53:46.348Z,1012.54
2022-10-05T09:54:46.488Z,1012.51
2022-10-05T09:55:46.362Z,1012.50
2022-10-05T09:56:46.660Z,1012.56
2022-10-05T09:57:48.181Z,1012.52
2022-10-05T09:58:46.344Z,1012.51
2022-10-05T09:59:46.341Z,1012.52
2022-10-05T10:00:51.517Z,1012.47
2022-10-05T10:01:46.967Z,1012.46
2022-10-05T10:02:46.459Z,1012.50
2022-10-05T10:03:46.332Z,1012.49
2022-10-05T10:04:46.330Z,1012.46
2022-10-05T10:05:46.333Z,1012.41
2022-10-05T10:06:46.331Z,1012.48
2022-10-05T10:07:46.327Z,1012.46
2022-10-05T10:08:46.329Z,1012.49
2022-10-05T10:09:46.325Z,1012.51
2022-10-05T10:10:46.376Z,1012.48
2022-10-05T10:11:46.681Z,1012.43
2022-10-05T10:12:46.319Z,1012.43
2022-10-05T10:13:46.322Z,1012.46
2022-10-05T10:14:46.317Z,1012.43
2022-10-05T10:15:46.426Z,1012.45
2022-10-05T10:16:46.313Z,1012.45
2022-10-05T10:17:46.311Z,1012.43
2022-10-05T10:18:46.311Z,1012.41
2022-10-05T10:19:46.306Z,1012.44
2022-10-05T10:20:46.311Z,1012.43
2022-10-05T10:21:46.718Z,1012.43
2022-10-05T10:22:46.303Z,1012.44
2022-10-05T10:23:46.301Z,1012.48
2022-10-05T10:24:46.302Z,1012.45
2022-10-05T10:25:46.299Z,1012.44
2022-10-05T10:26:46.418Z,1012.40
2022-10-05T10:27:51.607Z,1012.51
2022-10-05T10:28:46.306Z,1012.45
2022-10-05T10:29:46.298Z,1012.44
2022-10-05T10:30:46.307Z,1012.46
2022-10-05T10:31:46.587Z,1012.43
2022-10-05T10:32:46.292Z,1012.47
2022-10-05T10:33:46.285Z,1012.46
2022-10-05T10:34:46.488Z,1012.42
2022-10-05T10:35:46.280Z,1012.45
2022-10-05T10:36:46.590Z,1012.42
2022-10-05T10:37:46.283Z,1012.43
2022-10-05T10:38:46.279Z,1012.42
2022-10-05T10:39:46.280Z,1012.38
2022-10-05T10:40:46.281Z,1012.43
2022-10-05T10:41:46.272Z,1012.46
2022-10-05T10:42:46.362Z,1012.41
2022-10-05T10:43:46.298Z,1012.37
2022-10-05T10:44:46.272Z,1012.41
2022-10-05T10:45:46.271Z,1012.38
2022-10-05T10:46:46.732Z,1012.34
2022-10-05T10:47:46.265Z,1012.32
2022-10-05T10:48:46.269Z,1012.34
2022-10-05T10:49:46.263Z,1012.33
2022-10-05T10:50:46.264Z,1012.35
2022-10-05T10:51:46.261Z,1012.31
2022-10-05T10:52:46.256Z,1012.31
2022-10-05T10:53:46.259Z,1012.33
2022-10-05T10:54:46.254Z,1012.27
2022-10-05T10:55:46.257Z,1012.29
2022-10-05T10:56:46.585Z,1012.25
2022-10-05T10:57:46.264Z,1012.27
2022-10-05T10:58:46.266Z,1012.32
2022-10-05T10:59:46.255Z,1012.26
2022-10-05T11:00:46.248Z,1012.31
2022-10-05T11:01:46.796Z,1012.24
2022-10-05T11:02:46.285Z,1012.22
2022-10-05T11:03:46.247Z,1012.17
2022-10-05T11:04:46.568Z,1012.16
2022-10-05T11:05:48.675Z,1012.14
2022-10-05T11:06:46.249Z,1012.08
2022-10-05T11:07:46.237Z,1012.10
2022-10-05T11:08:46.235Z,1012.09
2022-10-05T11:09:46.237Z,1012.08
2022-10-05T11:10:46.237Z,1012.05
2022-10-05T11:11:46.618Z,1012.03
2022-10-05T11:12:46.230Z,1012.01
2022-10-05T11:13:46.240Z,1011.97
2022-10-05T11:14:46.250Z,1011.91
2022-10-05T11:15:46.282Z,1011.92
2022-10-05T11:16:46.629Z,1011.90
2022-10-05T11:17:46.227Z,1011.91
2022-10-05T11:18:46.223Z,1011.87
2022-10-05T11:20:03.039Z,1011.83
2022-10-05T11:20:46.219Z,1011.83
2022-10-05T11:21:46.219Z,1011.83
2022-10-05T11:22:46.217Z,1011.78
2022-10-05T11:23:46.220Z,1011.76
2022-10-05T11:24:46.215Z,1011.74
2022-10-05T11:25:46.221Z,1011.74
2022-10-05T11:26:46.644Z,1011.71
2022-10-05T11:27:46.213Z,1011.69
2022-10-05T11:28:46.223Z,1011.65
2022-10-05T11:29:46.210Z,1011.65
2022-10-05T11:30:48.938Z,1011.58
2022-10-05T11:31:46.757Z,1011.59
2022-10-05T11:32:46.208Z,1011.56
2022-10-05T11:33:46.204Z,1011.49
2022-10-05T11:34:46.204Z,1011.53
2022-10-05T11:35:46.206Z,1011.54
2022-10-05T11:36:46.201Z,1011.51
2022-10-05T11:37:46.201Z,1011.48
2022-10-05T11:38:46.199Z,1011.48
2022-10-05T11:39:46.202Z,1011.51
2022-10-05T11:40:46.194Z,1011.42
2022-10-05T11:41:46.589Z,1011.45
2022-10-05T11:42:46.198Z,1011.37
2022-10-05T11:43:46.196Z,1011.40
2022-10-05T11:44:46.190Z,1011.39
2022-10-05T11:45:46.193Z,1011.37
2022-10-05T11:46:46.350Z,1011.30
2022-10-05T11:47:46.188Z,1011.27
2022-10-05T11:48:46.184Z,1011.20
2022-10-05T11:49:46.188Z,1011.19
2022-10-05T11:50:46.183Z,1011.19
2022-10-05T11:51:46.517Z,1011.19
2022-10-05T11:52:46.180Z,1011.18
2022-10-05T11:53:46.192Z,1011.11
2022-10-05T11:55:09.957Z,1011.11
2022-10-05T11:55:46.176Z,1011.04
2022-10-05T11:56:49.482Z,1011.00
2022-10-05T11:57:46.183Z,1011.03
2022-10-05T11:58:46.248Z,1010.98
2022-10-05T11:59:46.183Z,1010.99
2022-10-05T12:00:46.173Z,1010.92
2022-10-05T12:01:46.172Z,1010.92
2022-10-05T12:02:46.382Z,1010.93
2022-10-05T12:03:46.284Z,1010.94
2022-10-05T12:04:46.174Z,1010.86
2022-10-05T12:05:46.168Z,1010.89